Rumford, RI (02916)

1:35 AM EST on December 22, 2014 (GMT -0500)
Ladd Observatory | Change Station
CLOSE
Current Station
Personal Weather Station
Location: Providence, RI
Elevation: 226 ft
Nearby Weather Stations

Elev 226 ft 41.84 °N, 71.40 °W | Updated 1 minute ago

Overcast
Overcast
31.9 °F
Feels Like 32 °F
N
3.0
Wind Variable Wind from NNW
Gusts 5.0 mph

Today
High -- | Low -- °F
--% Chance of Precip.
Yesterday
High -- | Low -- °F
Precip. -- in
7:10 AM 4:18 PM
New Moon, 0% visible
Pressure 30.32 in
Visibility 10.0 miles
Clouds Overcast 4800 ft
Windchill 32 °F
Dew Point 29 °F
Humidity 88%
Rainfall 0.00 in
Snow Depth Not available.
UV 0 out of 12
Pollen .10 out of 12
Air Quality Not available.
Flu Activity Not available.
METAR KSFZ 220615Z 36006KT 10SM OVC048 M01/M05 A3032 RMK AO1

More Conditions Fewer Conditions

Pressure 30.32 in
Visibility 10.0 miles
Clouds Overcast 4800 ft
Windchill 32 °F
Dew Point 29 °F
Humidity 88%
Rainfall 0.00 in
Snow Depth Not available.
UV 0 out of 12
Pollen .10 out of 12
Air Quality Not available.
Flu Activity Not available.
METAR KSFZ 220615Z 36006KT 10SM OVC048 M01/M05 A3032 RMK AO1

More Conditions Fewer Conditions

10-Day Weather Forecast

Almanac

Astronomy

Dec. 22, 2014 Rise Set
Actual Time
Civil Twilight
Nautical Twilight
Astronomical Twilight
Moon
Length of Visible Light
Length of Day
Tomorrow will be .
, % of the Moon is Illuminated

Today's Extremes

State Highs State Lows

Community

WunderPhotos

Upload Photos

1,779,559 photos uploaded!

WunderBlogs® & News

Nearby

Air Quality

  Air Quality AQ Index Pollutant
Not available.

Snow Depth

Station Depth Elevation

Earthquake Activity

City Distance Mag. Time & Date
Minimum magnitude displayed is 2.5.

Coastal Water Temperatures

Place Temperature

Nearby Weather Stations